Tortola's Pride — HO-3796 — position and weather

sailwx.info

Track history (hours):
 
Tides and Currents Weather Stations Pressure Air Temp Water Temp Dewpoint Dewpoint Depression Visibility Wind Speed Wind Dir Waves Ship Positions

Tortola's Pride

Last reported at 2015-Mar-28 22:22 UTC. Time now 2015-Apr-21 01:31 UTC.
Position N 18°25' W 064°36'.
Warning: this ship's position is 23 days out of date.

Length 49 m; draft 2.8 m.

Type: Cargo ship. MMSI: 355921000.

Date/timePositionNaut miles runAvg speedWind from/ knotsBaromVisibWave heightAir tempDewpointWater temp
2015-Mar-28 22:22N 18°25' W 064°36'7 8.9
2015-Mar-28 21:33N 18°23' W 064°44'9 8.8
2015-Mar-28 20:34N 18°18' W 064°52'2 0.3
2015-Mar-28 14:23N 18°18' W 064°54'7 8.0
2015-Mar-28 13:33N 18°21' W 064°47'9 9.0
2015-Mar-28 12:33N 18°23' W 064°38'2 0.5
2015-Mar-28 09:33N 18°24' W 064°37'11 7.9
2015-Mar-28 08:13N 18°17' W 064°45'5 7.9
2015-Mar-28 07:33N 18°16' W 064°50'3 0.1
2015-Mar-26 19:33N 18°18' W 064°52'5 4.6
2015-Mar-26 18:33N 18°20' W 064°48'0 0.0
2015-Mar-26 17:33N 18°20' W 064°48'0 0.0
2015-Mar-26 16:33N 18°20' W 064°48'0 0.0
2015-Mar-26 15:33N 18°20' W 064°48'3 2.9
2015-Mar-26 14:33N 18°22' W 064°46'10 0.2
2015-Mar-24 20:26N 18°25' W 064°37'0 0.2
2015-Mar-24 19:26N 18°24' W 064°37'0 0.0
2015-Mar-24 18:29N 18°24' W 064°37'0 0.0
2015-Mar-24 17:33N 18°24' W 064°37'0 0.0
2015-Mar-24 16:32N 18°24' W 064°37'0 0.0
2015-Mar-24 15:32N 18°24' W 064°37'0 0.0
2015-Mar-24 14:26N 18°24' W 064°37'0 0.0
2015-Mar-24 13:33N 18°24' W 064°37'0 0.0
2015-Mar-24 12:29N 18°24' W 064°37'  
2015-Mar-21 20:28N 18°25' W 064°36'0 0.0
2015-Mar-21 19:33N 18°25' W 064°36'0 0.0
2015-Mar-21 18:33N 18°25' W 064°36'0 0.0
2015-Mar-21 17:33N 18°25' W 064°36'0 0.0
2015-Mar-21 16:33N 18°25' W 064°36'0 0.0
2015-Mar-21 15:33N 18°25' W 064°36'0 0.0
2015-Mar-21 14:33N 18°25' W 064°36'0 0.0
2015-Mar-21 13:33N 18°25' W 064°36'3 0.1
2015-Mar-19 20:32N 18°22' W 064°35'0 0.2
2015-Mar-19 19:31N 18°22' W 064°35'0 0.0
2015-Mar-19 18:27N 18°22' W 064°35'0 0.0
2015-Mar-19 17:29N 18°22' W 064°35'0 0.0
2015-Mar-19 16:26N 18°22' W 064°35'0 0.0
2015-Mar-19 15:25N 18°22' W 064°35'2 1.8
2015-Mar-19 14:33N 18°23' W 064°36'  
Track history (hours):
 
Tides and Currents Weather Stations Pressure Air Temp Water Temp Dewpoint Dewpoint Depression Visibility Wind Speed Wind Dir Waves Ship Positions

Tortola's Pride

Last reported at 2015-Mar-28 22:22 UTC. Time now 2015-Apr-21 01:31 UTC.
Position N 18°25' W 064°36'.
Warning: this ship's position is 23 days out of date.

Length 49 m; draft 2.8 m.

Type: Cargo ship. MMSI: 355921000.

Date/timePositionNaut miles runAvg speedWind from/ knotsBaromVisibWave heightAir tempDewpointWater temp
2015-Mar-28 22:22N 18°25' W 064°36'7 8.9
2015-Mar-28 21:33N 18°23' W 064°44'9 8.8
2015-Mar-28 20:34N 18°18' W 064°52'2 0.3
2015-Mar-28 14:23N 18°18' W 064°54'7 8.0
2015-Mar-28 13:33N 18°21' W 064°47'9 9.0
2015-Mar-28 12:33N 18°23' W 064°38'2 0.5
2015-Mar-28 09:33N 18°24' W 064°37'11 7.9
2015-Mar-28 08:13N 18°17' W 064°45'5 7.9
2015-Mar-28 07:33N 18°16' W 064°50'3 0.1
2015-Mar-26 19:33N 18°18' W 064°52'5 4.6
2015-Mar-26 18:33N 18°20' W 064°48'0 0.0
2015-Mar-26 17:33N 18°20' W 064°48'0 0.0
2015-Mar-26 16:33N 18°20' W 064°48'0 0.0
2015-Mar-26 15:33N 18°20' W 064°48'3 2.9
2015-Mar-26 14:33N 18°22' W 064°46'10 0.2
2015-Mar-24 20:26N 18°25' W 064°37'0 0.2
2015-Mar-24 19:26N 18°24' W 064°37'0 0.0
2015-Mar-24 18:29N 18°24' W 064°37'0 0.0
2015-Mar-24 17:33N 18°24' W 064°37'0 0.0
2015-Mar-24 16:32N 18°24' W 064°37'0 0.0
2015-Mar-24 15:32N 18°24' W 064°37'0 0.0
2015-Mar-24 14:26N 18°24' W 064°37'0 0.0
2015-Mar-24 13:33N 18°24' W 064°37'0 0.0
2015-Mar-24 12:29N 18°24' W 064°37'  
2015-Mar-21 20:28N 18°25' W 064°36'0 0.0
2015-Mar-21 19:33N 18°25' W 064°36'0 0.0
2015-Mar-21 18:33N 18°25' W 064°36'0 0.0
2015-Mar-21 17:33N 18°25' W 064°36'0 0.0
2015-Mar-21 16:33N 18°25' W 064°36'0 0.0
2015-Mar-21 15:33N 18°25' W 064°36'0 0.0
2015-Mar-21 14:33N 18°25' W 064°36'0 0.0
2015-Mar-21 13:33N 18°25' W 064°36'3 0.1
2015-Mar-19 20:32N 18°22' W 064°35'0 0.2
2015-Mar-19 19:31N 18°22' W 064°35'0 0.0
2015-Mar-19 18:27N 18°22' W 064°35'0 0.0
2015-Mar-19 17:29N 18°22' W 064°35'0 0.0
2015-Mar-19 16:26N 18°22' W 064°35'0 0.0
2015-Mar-19 15:25N 18°22' W 064°35'2 1.8
2015-Mar-19 14:33N 18°23' W 064°36'  

Dump ship's entire track history